Time;durP1;ratioP1;P1;durP2;ratioP2;P2;SDS_P1;SDS_P2;PMS_P1;PMS_P2;Temp;Humidity;BMP_temperature;BMP_pressure;BME280_temperature;BME280_humidity;BME280_pressure;Samples;Min_cycle;Max_cycle;Signal;HPM_P1;HPM_P2
2023/12/16 00:02:10;;;;;;;;;;;12.40;49.10;;;12.52;51.92;102925.25;5075918;28;19924;-36
2023/12/16 00:04:40;;;;;;;;;;;12.40;49.10;;;12.51;52.03;102928.47;5075358;28;20015;-36
2023/12/16 00:07:08;;;;;;;;;;;12.30;49.00;;;12.52;51.98;102927.78;5075142;28;19948;-36
2023/12/16 00:09:36;;;;;;;;;;;12.30;49.10;;;12.48;52.87;102920.44;5075761;28;19929;-36
2023/12/16 00:12:05;;;;;;;;;;;12.30;49.10;;;12.49;51.77;102924.78;5076830;28;20280;-37
2023/12/16 00:14:36;;;;;;;;;;;12.30;49.10;;;12.47;52.65;102924.53;5077630;28;20028;-35
2023/12/16 00:17:04;;;;;;;;;;;12.30;49.20;;;12.45;52.93;102923.41;5067659;28;19924;-36
2023/12/16 00:19:33;;;;;;;;;;;12.30;49.20;;;12.45;52.19;102922.47;5079917;28;20019;-35
2023/12/16 00:22:01;;;;;;;;;;;12.30;49.20;;;12.44;52.72;102926.59;5081707;28;19932;-37
2023/12/16 00:24:29;;;;;;;;;;;12.30;49.20;;;12.44;52.38;102930.69;5083327;28;19924;-36
2023/12/16 00:26:57;;;;;;;;;;;12.30;49.20;;;12.43;51.87;102934.81;5083491;28;20102;-35
2023/12/16 00:29:25;;;;;;;;;;;12.30;49.20;;;12.44;52.20;102933.22;5080668;28;19928;-35
2023/12/16 00:31:53;;;;;;;;;;;12.30;49.20;;;12.44;52.91;102930.69;5075589;28;19924;-37
2023/12/16 00:34:21;;;;;;;;;;;12.30;49.20;;;12.45;52.09;102935.06;5075507;28;19928;-36
2023/12/16 00:36:50;;;;;;;;;;;12.30;49.20;;;12.45;52.21;102937.56;5074527;28;20199;-36
2023/12/16 00:39:18;;;;;;;;;;;12.30;49.20;;;12.47;52.09;102936.19;5077546;28;19932;-36
2023/12/16 00:41:46;;;;;;;;;;;12.30;49.20;;;12.48;52.36;102935.53;5066756;28;20028;-35
2023/12/16 00:44:15;;;;;;;;;;;12.30;49.20;;;12.50;52.43;102936.69;5075163;28;19928;-36
2023/12/16 00:46:43;;;;;;;;;;;12.30;49.10;;;12.51;51.65;102933.50;5072335;28;19929;-36
2023/12/16 00:49:11;;;;;;;;;;;12.30;49.10;;;12.56;51.79;102927.59;5075955;28;19928;-36
2023/12/16 00:51:39;;;;;;;;;;;12.40;49.10;;;12.57;51.42;102924.41;5075638;28;19977;-36
2023/12/16 00:54:09;;;;;;;;;;;12.40;49.00;;;12.59;51.42;102925.56;5074148;28;20026;-37
2023/12/16 00:56:37;;;;;;;;;;;12.40;48.90;;;12.62;51.85;102933.59;5073913;28;19983;-36
2023/12/16 00:59:04;;;;;;;;;;;12.40;48.90;;;12.62;51.02;102933.59;5074914;28;19924;-35
2023/12/16 01:01:32;;;;;;;;;;;12.40;48.80;;;12.68;51.81;102934.56;5074938;28;19975;-36
2023/12/16 01:04:00;;;;;;;;;;;12.50;48.90;;;12.68;51.92;102937.09;5074849;28;20004;-36
2023/12/16 01:06:28;;;;;;;;;;;12.50;48.80;;;12.71;52.09;102930.00;5073311;28;19929;-37
2023/12/16 01:08:57;;;;;;;;;;;12.50;48.80;;;12.43;51.28;102883.59;5075039;28;19931;-36
2023/12/16 01:11:26;;;;;;;;;;;12.50;48.70;;;12.75;51.49;102939.91;5067003;28;19963;-36
2023/12/16 01:13:54;;;;;;;;;;;12.50;48.70;;;12.78;50.55;102932.81;5075167;28;20019;-36
2023/12/16 01:16:22;;;;;;;;;;;12.50;48.60;;;12.76;51.40;102934.19;5074794;28;19928;-36
2023/12/16 01:18:50;;;;;;;;;;;12.50;48.60;;;12.74;50.73;102938.06;5075774;28;19924;-36
2023/12/16 01:21:19;;;;;;;;;;;12.50;48.60;;;12.77;51.57;102936.00;5076368;28;19963;-36
2023/12/16 01:23:47;;;;;;;;;;;12.50;48.60;;;12.78;51.57;102942.88;5075573;28;19935;-36
2023/12/16 01:26:15;;;;;;;;;;;12.50;48.50;;;12.76;51.53;102949.28;5074270;28;20074;-36
2023/12/16 01:28:45;;;;;;;;;;;12.50;48.60;;;12.74;51.16;102945.59;5074859;28;19932;-36
2023/12/16 01:31:13;;;;;;;;;;;12.50;49.20;;;12.72;51.14;102941.91;5074622;28;19928;-34
2023/12/16 01:33:41;;;;;;;;;;;12.50;48.60;;;12.69;51.50;102930.47;5074714;28;19924;-36
2023/12/16 01:36:09;;;;;;;;;;;12.50;48.70;;;12.69;51.02;102936.41;5077291;28;20299;-36
2023/12/16 01:38:37;;;;;;;;;;;12.50;48.70;;;12.67;51.95;102937.75;5082655;28;20015;-36
2023/12/16 01:41:05;;;;;;;;;;;12.40;48.70;;;12.66;52.09;102945.97;5081561;28;19931;-36
2023/12/16 01:43:33;;;;;;;;;;;12.40;48.70;;;12.63;52.02;102948.03;5076201;28;19928;-36
2023/12/16 01:46:04;;;;;;;;;;;12.40;48.80;;;12.60;51.50;102947.53;5073646;28;20296;-36
2023/12/16 01:48:33;;;;;;;;;;;12.40;48.80;;;12.57;51.54;102944.53;5074658;28;20019;-35
2023/12/16 01:51:01;;;;;;;;;;;12.40;48.90;;;12.55;51.12;102940.84;5074598;28;19924;-35
2023/12/16 01:53:30;;;;;;;;;;;12.30;48.80;;;12.56;51.67;102946.81;5074422;28;19931;-35
2023/12/16 01:55:58;;;;;;;;;;;12.30;48.80;;;12.53;52.04;102947.22;5073176;28;19924;-35
2023/12/16 01:58:26;;;;;;;;;;;12.30;48.90;;;12.51;52.19;102963.69;5074806;28;19931;-36
2023/12/16 02:00:54;;;;;;;;;;;12.30;48.90;;;12.48;51.90;102959.06;5073846;28;19924;-36
2023/12/16 02:03:24;;;;;;;;;;;12.30;48.90;;;12.45;51.39;102948.56;5073793;28;19970;-36
2023/12/16 02:05:52;;;;;;;;;;;12.30;49.00;;;12.47;52.76;102946.25;5064657;28;19924;-36
2023/12/16 02:08:20;;;;;;;;;;;12.30;49.00;;;12.43;51.28;102943.94;5073598;28;20015;-36
2023/12/16 02:10:48;;;;;;;;;;;12.30;49.00;;;12.44;51.80;102943.28;5073531;28;20022;-36
2023/12/16 02:13:18;;;;;;;;;;;12.30;49.10;;;12.43;51.96;102948.97;5073379;28;19925;-36
2023/12/16 02:15:46;;;;;;;;;;;12.30;49.10;;;12.43;52.23;102951.47;5073021;28;19937;-35
2023/12/16 02:18:14;;;;;;;;;;;12.20;49.00;;;12.43;52.25;102943.94;5073263;28;19924;-35
2023/12/16 02:20:46;;;;;;;;;;;12.30;49.10;;;12.42;51.82;102937.06;5073592;28;20023;-35
2023/12/16 02:23:17;;;;;;;;;;;12.30;49.10;;;12.41;52.53;102940.25;5073629;28;19932;-36
2023/12/16 02:25:44;;;;;;;;;;;12.30;49.10;;;12.40;52.56;102938.41;5073246;28;20019;-35
2023/12/16 02:28:13;;;;;;;;;;;12.20;49.00;;;12.40;52.60;102938.41;5078254;28;19925;-35
2023/12/16 02:30:41;;;;;;;;;;;12.20;49.00;;;12.43;51.87;102943.94;5083610;28;19928;-35
2023/12/16 02:33:09;;;;;;;;;;;12.30;49.10;;;12.44;52.17;102936.66;5083045;28;19931;-35
2023/12/16 02:35:37;;;;;;;;;;;12.30;49.10;;;12.46;52.59;102949.44;5072679;28;19924;-36
2023/12/16 02:38:05;;;;;;;;;;;12.30;49.00;;;12.47;51.27;102942.16;5073012;28;20376;-34
2023/12/16 02:40:38;;;;;;;;;;;12.30;49.00;;;12.48;52.55;102949.03;5073539;28;20367;-36
2023/12/16 02:43:06;;;;;;;;;;;12.30;48.90;;;12.52;51.67;102939.47;5073542;28;20273;-35
2023/12/16 02:45:34;;;;;;;;;;;12.30;48.90;;;12.57;51.38;102939.50;5073008;28;19928;-35
2023/12/16 02:48:03;;;;;;;;;;;12.30;48.80;;;12.57;51.79;102934.47;5072468;28;20453;-36
2023/12/16 02:50:31;;;;;;;;;;;12.40;48.80;;;12.63;51.81;102932.94;5072933;28;19928;-35
2023/12/16 02:52:59;;;;;;;;;;;12.40;48.80;;;12.65;51.31;102949.16;5073094;28;20023;-35
2023/12/16 02:55:27;;;;;;;;;;;12.50;48.80;;;12.66;51.94;102935.91;5072425;28;20016;-35
2023/12/16 02:57:57;;;;;;;;;;;12.50;48.70;;;12.68;51.26;102939.59;5072795;28;19970;-35
2023/12/16 03:00:25;;;;;;;;;;;12.50;48.60;;;12.72;51.17;102931.84;5072758;28;19959;-35
2023/12/16 03:02:53;;;;;;;;;;;12.50;48.50;;;12.73;51.26;102931.19;5072411;28;19924;-34
2023/12/16 03:05:21;;;;;;;;;;;12.50;48.50;;;12.78;50.91;102939.44;5072353;28;19934;-36
2023/12/16 03:07:49;;;;;;;;;;;12.50;48.50;;;12.76;51.54;102929.16;5072534;28;19924;-36
2023/12/16 03:10:17;;;;;;;;;;;12.50;48.40;;;12.77;51.09;102936.00;5072801;28;19932;-36
2023/12/16 03:12:45;;;;;;;;;;;12.50;48.40;;;12.77;50.97;102941.03;5072224;28;20444;-35
2023/12/16 03:15:15;;;;;;;;;;;12.50;48.40;;;12.79;50.41;102946.31;5072028;28;19925;-35
2023/12/16 03:17:43;;;;;;;;;;;12.50;48.40;;;12.78;51.67;102957.97;5072544;28;19972;-36
2023/12/16 03:20:12;;;;;;;;;;;12.50;48.40;;;12.74;50.87;102964.81;5072159;28;20391;-37
2023/12/16 03:22:40;;;;;;;;;;;12.50;48.40;;;12.72;51.11;102967.06;5072207;28;20362;-35
2023/12/16 03:25:08;;;;;;;;;;;12.50;48.40;;;12.70;52.01;102970.97;5071571;28;19931;-36
2023/12/16 03:27:36;;;;;;;;;;;12.50;48.50;;;12.69;51.50;102970.72;5072199;28;19933;-35
2023/12/16 03:30:06;;;;;;;;;;;12.50;48.50;;;12.66;51.58;102966.09;5071370;28;19979;-36
2023/12/16 03:32:35;;;;;;;;;;;12.50;48.50;;;12.64;51.00;102962.44;5072716;28;20354;-36
2023/12/16 03:35:04;;;;;;;;;;;12.40;48.50;;;12.62;51.09;102960.34;5071505;28;20316;-34
2023/12/16 03:37:32;;;;;;;;;;;12.40;48.60;;;12.60;51.59;102955.06;5071986;28;20019;-37
2023/12/16 03:40:00;;;;;;;;;;;12.40;48.70;;;12.57;51.76;102949.56;5072692;28;19932;-35
2023/12/16 03:42:28;;;;;;;;;;;12.40;48.70;;;12.54;52.35;102949.06;5072210;28;20331;-35
2023/12/16 03:44:56;;;;;;;;;;;12.30;48.70;;;12.52;52.16;102952.03;5071621;28;19924;-35
2023/12/16 03:47:24;;;;;;;;;;;12.30;48.70;;;12.51;51.28;102958.66;5072833;28;19924;-36
2023/12/16 03:49:53;;;;;;;;;;;12.30;48.70;;;12.49;51.62;102955.91;5083968;22;20006;-33
2023/12/16 03:52:21;;;;;;;;;;;12.30;48.80;;;12.40;51.89;102944.34;5071781;28;19933;-33
2023/12/16 03:54:49;;;;;;;;;;;12.30;48.90;;;12.46;52.26;102952.88;5070991;28;19931;-32
2023/12/16 03:57:17;;;;;;;;;;;12.30;48.90;;;12.45;52.15;102947.63;5071543;28;20299;-32
2023/12/16 03:59:45;;;;;;;;;;;12.30;48.90;;;12.44;52.06;102950.81;5071912;28;20019;-35
2023/12/16 04:02:13;;;;;;;;;;;12.30;48.90;;;12.44;51.94;102955.84;5072047;28;19924;-36
2023/12/16 04:04:42;;;;;;;;;;;12.20;48.90;;;12.41;52.15;102960.38;5071730;28;20528;-32
2023/12/16 04:07:11;;;;;;;;;;;12.20;48.90;;;12.42;51.29;102957.19;5071130;28;20011;-32
2023/12/16 04:09:40;;;;;;;;;;;12.20;48.90;;;12.39;52.58;102952.56;5071349;28;19932;-32
2023/12/16 04:12:08;;;;;;;;;;;12.20;48.90;;;12.39;51.77;102956.72;5071714;28;20380;-34
2023/12/16 04:14:37;;;;;;;;;;;12.20;48.90;;;12.37;51.98;102953.03;5071605;28;19978;-34
2023/12/16 04:17:05;;;;;;;;;;;12.20;48.90;;;12.40;51.86;102953.50;5071242;28;20019;-31
2023/12/16 04:19:32;;;;;;;;;;;12.20;48.90;;;12.37;52.47;102943.88;5071713;28;20382;-32
2023/12/16 04:22:00;;;;;;;;;;;12.20;48.90;;;12.42;52.42;102948.06;5064125;28;19929;-32
2023/12/16 04:24:30;;;;;;;;;;;12.20;48.90;;;12.45;52.03;102957.69;5071550;28;19929;-32
2023/12/16 04:26:58;;;;;;;;;;;12.30;48.90;;;12.46;52.02;102941.91;5070826;28;19946;-35
2023/12/16 04:29:26;;;;;;;;;;;12.30;48.80;;;12.49;51.59;102954.97;5071273;28;19931;-35
2023/12/16 04:31:54;;;;;;;;;;;12.30;48.80;;;12.52;52.35;102945.38;5071502;28;20229;-37
2023/12/16 04:34:21;;;;;;;;;;;12.30;48.70;;;12.53;51.74;102937.16;5071642;28;20023;-31
2023/12/16 04:36:49;;;;;;;;;;;12.40;48.80;;;12.57;51.67;102944.53;5070864;28;19924;-31
2023/12/16 04:39:17;;;;;;;;;;;12.30;48.60;;;12.61;51.97;102940.91;5071526;28;19931;-33
2023/12/16 04:41:47;;;;;;;;;;;12.40;48.60;;;12.60;51.49;102934.94;5073459;28;19959;-33
2023/12/16 04:44:15;;;;;;;;;;;12.40;48.60;;;12.67;51.19;102946.91;5075250;28;20015;-33
2023/12/16 04:46:43;;;;;;;;;;;12.40;48.50;;;12.68;51.47;102952.19;5074363;28;20342;-32
2023/12/16 04:49:11;;;;;;;;;;;12.40;48.40;;;12.68;50.47;102942.13;5069569;28;19960;-32
2023/12/16 04:51:39;;;;;;;;;;;12.40;48.40;;;12.74;51.23;102950.63;5071830;28;19983;-34
2023/12/16 04:54:07;;;;;;;;;;;12.50;48.50;;;12.74;51.05;102945.59;5075104;28;19956;-31
2023/12/16 04:56:35;;;;;;;;;;;12.50;48.40;;;12.75;50.96;102942.41;5074234;28;19924;-32
2023/12/16 04:59:04;;;;;;;;;;;12.50;48.40;;;12.77;51.12;102946.06;5066896;28;20018;-34
2023/12/16 05:01:32;;;;;;;;;;;12.50;48.30;;;12.78;51.01;102947.91;5074906;28;19978;-37
2023/12/16 05:04:00;;;;;;;;;;;12.50;48.30;;;12.76;50.75;102954.31;5074694;28;19935;-37
2023/12/16 05:06:28;;;;;;;;;;;12.50;48.30;;;12.77;51.16;102955.25;5074096;28;19982;-37
2023/12/16 05:08:56;;;;;;;;;;;12.50;48.30;;;12.75;50.72;102952.47;5074434;28;19932;-32
2023/12/16 05:11:24;;;;;;;;;;;12.50;48.30;;;12.70;51.79;102958.38;5074476;28;20357;-34
2023/12/16 05:13:52;;;;;;;;;;;12.50;48.30;;;12.70;51.21;102955.88;5074542;28;19933;-32
2023/12/16 05:16:21;;;;;;;;;;;12.50;48.40;;;12.66;51.08;102956.03;5073814;28;19924;-32
2023/12/16 05:18:49;;;;;;;;;;;12.50;48.40;;;12.64;50.72;102959.00;5074571;28;19924;-31
2023/12/16 05:21:18;;;;;;;;;;;12.40;48.40;;;12.61;51.13;102961.94;5075078;28;19932;-33
2023/12/16 05:23:45;;;;;;;;;;;12.40;48.40;;;12.59;51.47;102963.28;5074810;28;20015;-35
2023/12/16 05:26:13;;;;;;;;;;;12.40;48.50;;;12.57;50.95;102959.63;5074180;28;19946;-35
2023/12/16 05:28:41;;;;;;;;;;;12.40;48.50;;;12.55;51.43;102955.94;5074181;28;20394;-34
2023/12/16 05:31:09;;;;;;;;;;;12.40;48.60;;;12.53;51.27;102962.31;5073656;28;20283;-35
2023/12/16 05:33:38;;;;;;;;;;;12.40;48.60;;;12.50;51.60;102956.81;5073703;28;19972;-34
2023/12/16 05:36:07;;;;;;;;;;;12.30;48.60;;;12.49;51.66;102954.97;5066265;28;20027;-36
2023/12/16 05:38:35;;;;;;;;;;;12.30;48.60;;;12.46;51.52;102952.88;5074416;28;19925;-36
2023/12/16 05:41:04;;;;;;;;;;;12.30;48.70;;;12.46;51.51;102954.47;5066508;28;19929;-35
2023/12/16 05:43:32;;;;;;;;;;;12.30;48.70;;;12.43;51.82;102959.03;5074144;28;19924;-36
2023/12/16 05:45:59;;;;;;;;;;;12.30;48.70;;;12.42;51.58;102957.19;5073882;28;19925;-35
2023/12/16 05:48:27;;;;;;;;;;;12.30;48.70;;;12.41;51.14;102950.31;5074109;28;20371;-35
2023/12/16 05:50:57;;;;;;;;;;;12.30;48.80;;;12.42;51.88;102947.13;5073680;28;19966;-35
2023/12/16 05:53:25;;;;;;;;;;;12.30;48.80;;;12.40;51.70;102943.44;5073576;28;19928;-35
2023/12/16 05:55:53;;;;;;;;;;;12.20;48.70;;;12.39;52.07;102946.66;5072999;28;20362;-35
2023/12/16 05:58:21;;;;;;;;;;;12.20;48.70;;;12.38;51.27;102949.84;5074185;28;19924;-35
2023/12/16 06:00:49;;;;;;;;;;;12.20;48.80;;;12.34;52.09;102947.50;5073795;28;19967;-35
2023/12/16 06:03:17;;;;;;;;;;;12.20;48.80;;;12.38;52.30;102949.84;5074272;28;19931;-35
2023/12/16 06:05:45;;;;;;;;;;;12.20;48.80;;;12.35;51.91;102954.38;5073046;28;19928;-35
2023/12/16 06:08:15;;;;;;;;;;;12.20;48.70;;;12.33;51.69;102945.69;5073910;28;19924;-35
2023/12/16 06:10:43;;;;;;;;;;;12.20;48.80;;;12.39;52.15;102946.66;5074091;28;20020;-35
2023/12/16 06:13:11;;;;;;;;;;;12.20;48.70;;;12.44;51.36;102960.88;5074006;28;19924;-34
2023/12/16 06:15:39;;;;;;;;;;;12.20;48.70;;;12.46;51.55;102964.53;5075675;28;20414;-35
2023/12/16 06:18:07;;;;;;;;;;;12.30;48.70;;;12.45;51.92;102963.63;5067803;28;20380;-35
2023/12/16 06:20:35;;;;;;;;;;;12.30;48.70;;;12.50;51.31;102971.91;5075917;28;20312;-35
2023/12/16 06:23:03;;;;;;;;;;;12.30;48.60;;;12.52;51.88;102977.19;5076479;28;19971;-36
2023/12/16 06:25:32;;;;;;;;;;;12.30;48.60;;;12.57;51.18;102972.22;5075942;28;19931;-35
2023/12/16 06:28:00;;;;;;;;;;;12.40;48.60;;;12.55;50.74;102960.97;5074077;28;20270;-35
2023/12/16 06:30:28;;;;;;;;;;;12.40;48.50;;;12.61;51.38;102974.53;5073499;28;19936;-35
2023/12/16 06:32:56;;;;;;;;;;;12.40;48.40;;;12.64;51.42;102962.44;5073211;28;19936;-35
2023/12/16 06:35:24;;;;;;;;;;;12.40;48.40;;;12.65;51.01;102969.28;5073094;28;19924;-34
2023/12/16 06:37:52;;;;;;;;;;;12.40;48.30;;;12.67;50.94;102962.91;5073236;28;19928;-35
2023/12/16 06:40:20;;;;;;;;;;;12.40;48.30;;;12.71;51.10;102975.28;5073417;28;19964;-35
2023/12/16 06:42:50;;;;;;;;;;;12.50;48.40;;;12.75;50.71;102969.16;5073083;28;19970;-34
2023/12/16 06:45:17;;;;;;;;;;;12.50;48.30;;;12.75;50.67;102967.56;5072265;28;19932;-35
2023/12/16 06:47:45;;;;;;;;;;;12.50;48.30;;;12.75;51.28;102982.66;5072607;28;20460;-34
2023/12/16 06:50:14;;;;;;;;;;;12.50;48.20;;;12.79;50.66;102979.03;5072756;28;20015;-35
2023/12/16 06:52:42;;;;;;;;;;;12.50;48.20;;;12.75;51.54;102992.72;5073472;28;19977;-35
2023/12/16 06:55:10;;;;;;;;;;;12.50;48.20;;;12.77;51.27;102992.97;5073142;28;19925;-35
2023/12/16 06:57:38;;;;;;;;;;;12.50;48.10;;;12.76;51.42;102993.66;5073299;28;19963;-35
2023/12/16 07:00:09;;;;;;;;;;;12.50;48.20;;;12.73;51.02;102993.16;5074178;28;19971;-38
2023/12/16 07:02:37;;;;;;;;;;;12.50;48.20;;;12.72;50.97;102997.25;5072952;28;19932;-36
2023/12/16 07:05:06;;;;;;;;;;;12.50;48.30;;;12.67;50.56;103003.16;5071226;28;20411;-35
2023/12/16 07:07:34;;;;;;;;;;;12.50;48.30;;;12.64;50.93;103002.69;5072488;28;19924;-37
2023/12/16 07:10:02;;;;;;;;;;;12.40;48.20;;;12.63;51.63;102999.94;5072726;28;19938;-38
2023/12/16 07:12:30;;;;;;;;;;;12.40;48.30;;;12.62;50.99;103018.19;5072915;28;19924;-34
2023/12/16 07:14:58;;;;;;;;;;;12.40;48.40;;;12.57;51.27;103002.38;5071812;28;20003;-34
2023/12/16 07:17:29;;;;;;;;;;;12.40;48.40;;;12.57;52.06;103009.00;5072419;28;20011;-34
2023/12/16 07:19:57;;;;;;;;;;;12.40;48.50;;;12.54;51.23;103014.47;5072749;28;20330;-35
2023/12/16 07:22:24;;;;;;;;;;;12.30;48.40;;;12.53;51.42;103007.59;5073056;28;19925;-35
2023/12/16 07:24:52;;;;;;;;;;;12.40;48.60;;;12.51;51.68;103019.03;5072152;28;19931;-35
2023/12/16 07:27:21;;;;;;;;;;;12.30;48.50;;;12.50;51.27;103017.19;5072464;28;19925;-35
2023/12/16 07:29:50;;;;;;;;;;;12.30;48.60;;;12.48;51.76;103018.50;5071926;28;19932;-35
2023/12/16 07:32:18;;;;;;;;;;;12.30;48.60;;;12.47;51.17;103011.63;5073143;28;19931;-35
2023/12/16 07:34:50;;;;;;;;;;;12.30;48.60;;;12.46;51.74;103022.38;5072382;28;20015;-35
2023/12/16 07:37:19;;;;;;;;;;;12.30;48.60;;;12.44;51.47;103016.19;5072383;28;20394;-34
2023/12/16 07:39:47;;;;;;;;;;;12.30;48.70;;;12.43;51.77;103024.41;5072145;28;19978;-35
2023/12/16 07:42:15;;;;;;;;;;;12.30;48.70;;;12.42;52.07;103022.56;5072170;28;19929;-35
2023/12/16 07:44:43;;;;;;;;;;;12.20;48.60;;;12.40;51.46;103018.88;5072597;28;19925;-35
2023/12/16 07:47:10;;;;;;;;;;;12.20;48.70;;;12.40;52.24;103016.34;5063618;28;20019;-35
2023/12/16 07:49:38;;;;;;;;;;;12.20;48.70;;;12.39;52.10;103020.47;5071847;28;19931;-34
2023/12/16 07:52:08;;;;;;;;;;;12.20;48.70;;;12.40;52.06;103023.91;5072510;28;19924;-35
2023/12/16 07:54:36;;;;;;;;;;;12.20;48.70;;;12.40;51.58;103019.78;5072110;28;19928;-34
2023/12/16 07:57:04;;;;;;;;;;;12.30;48.70;;;12.41;51.94;103025.75;5071927;28;20015;-34
2023/12/16 07:59:32;;;;;;;;;;;12.20;48.70;;;12.42;52.07;103027.59;5072611;28;19924;-35
2023/12/16 08:02:03;;;;;;;;;;;12.30;48.70;;;12.45;51.80;103018.03;5072178;28;19940;-35
2023/12/16 08:04:32;;;;;;;;;;;12.30;48.70;;;12.46;51.50;103014.81;5072484;28;19931;-35
2023/12/16 08:07:00;;;;;;;;;;;12.30;48.70;;;12.46;51.32;103009.78;5063251;28;19992;-34
2023/12/16 08:09:29;;;;;;;;;;;12.30;48.60;;;12.49;50.79;103017.84;5071761;28;20005;-35
2023/12/16 08:11:58;;;;;;;;;;;12.30;48.60;;;12.52;51.10;103010.78;5072073;28;19951;-35
2023/12/16 08:14:26;;;;;;;;;;;12.30;48.50;;;12.54;51.45;103016.97;5072709;28;20353;-35
2023/12/16 08:16:54;;;;;;;;;;;12.30;48.40;;;12.56;51.21;103013.13;5075450;28;19931;-35
2023/12/16 08:19:22;;;;;;;;;;;12.30;48.40;;;12.60;51.37;103025.50;5067679;28;20027;-35
2023/12/16 08:21:50;;;;;;;;;;;12.40;48.40;;;12.62;50.74;103029.19;5075853;28;20045;-34
2023/12/16 08:24:19;;;;;;;;;;;12.40;48.30;;;12.61;50.90;103024.81;5076141;28;20020;-34
2023/12/16 08:26:50;;;;;;;;;;;12.40;48.30;;;12.67;51.27;103028.31;5076001;28;19924;-34
2023/12/16 08:29:19;;;;;;;;;;;12.50;48.40;;;12.70;51.30;103032.94;5076490;28;19978;-34
2023/12/16 08:31:47;;;;;;;;;;;12.50;48.30;;;12.69;51.22;103029.50;5076287;28;19934;-35
2023/12/16 08:34:15;;;;;;;;;;;12.50;48.30;;;12.74;51.24;103041.19;5069169;28;20011;-35
2023/12/16 08:36:43;;;;;;;;;;;12.50;48.20;;;12.76;50.76;103039.88;5076092;28;19925;-34
2023/12/16 08:39:11;;;;;;;;;;;12.50;48.20;;;12.77;50.54;103041.66;5075881;28;20366;-35
2023/12/16 08:41:40;;;;;;;;;;;12.50;48.20;;;12.75;50.28;103032.97;5076930;28;19993;-35
2023/12/16 08:44:09;;;;;;;;;;;12.50;48.10;;;12.75;50.69;103032.97;5076805;28;19932;-35
2023/12/16 08:46:41;;;;;;;;;;;12.50;48.10;;;12.75;50.82;103043.03;5075371;28;20030;-35
2023/12/16 08:49:09;;;;;;;;;;;12.50;48.10;;;12.74;50.75;103046.22;5075681;28;20007;-35
2023/12/16 08:51:37;;;;;;;;;;;12.50;48.10;;;12.73;51.25;103046.91;5076170;28;19928;-35
2023/12/16 08:54:05;;;;;;;;;;;12.50;48.10;;;12.70;51.44;103048.94;5075571;28;19930;-35
2023/12/16 08:56:32;;;;;;;;;;;12.50;48.20;;;12.68;50.93;103050.28;5074783;28;19931;-35
2023/12/16 08:59:00;;;;;;;;;;;12.50;48.20;;;12.66;51.37;103046.59;5074813;28;19929;-36
2023/12/16 09:01:32;;;;;;;;;;;12.50;48.30;;;12.65;50.90;103049.78;5074877;28;20037;-35
2023/12/16 09:04:00;;;;;;;;;;;12.40;48.20;;;12.63;51.11;103051.16;5076128;28;20032;-36
2023/12/16 09:06:28;;;;;;;;;;;12.40;48.30;;;12.61;51.43;103055.00;5074793;28;19924;-35
2023/12/16 09:09:01;;;;;;;;;;;12.40;48.30;;;12.59;51.11;103046.28;5074546;28;20024;-36
2023/12/16 09:11:28;;;;;;;;;;;12.40;48.40;;;12.56;51.50;103048.34;5074795;28;19978;-35
2023/12/16 09:13:56;;;;;;;;;;;12.40;48.40;;;12.54;51.02;103039.59;5074444;28;19928;-35
2023/12/16 09:16:24;;;;;;;;;;;12.30;48.40;;;12.53;51.57;103047.81;5074347;28;20015;-35
2023/12/16 09:18:54;;;;;;;;;;;12.30;48.40;;;12.48;52.03;103048.69;5075449;28;19924;-35
2023/12/16 09:21:22;;;;;;;;;;;12.30;48.50;;;12.50;51.87;103057.41;5074779;28;19924;-36
2023/12/16 09:23:50;;;;;;;;;;;12.30;48.50;;;12.47;51.33;103067.88;5074512;28;19924;-34
2023/12/16 09:26:17;;;;;;;;;;;12.30;48.50;;;12.47;51.74;103069.47;5065207;28;19978;-35
2023/12/16 09:28:45;;;;;;;;;;;12.30;48.60;;;12.47;51.97;103067.88;5074468;28;19925;-35
2023/12/16 09:31:13;;;;;;;;;;;12.30;48.60;;;12.45;50.83;103073.38;5074426;28;19930;-35
2023/12/16 09:33:41;;;;;;;;;;;12.30;49.30;;;12.44;51.85;103066.50;5074809;28;19925;-35
2023/12/16 09:36:13;;;;;;;;;;;12.30;48.70;;;12.44;51.50;103066.50;5073689;28;19974;-35
2023/12/16 09:38:42;;;;;;;;;;;12.30;48.70;;;12.42;51.34;103062.78;5074478;28;19925;-35
2023/12/16 09:41:17;;;;;;;;;;;12.20;48.60;;;12.29;51.50;103043.88;5074544;28;19963;-35
2023/12/16 09:43:45;;;;;;;;;;;12.20;48.70;;;12.41;52.19;103065.97;5075343;28;19972;-35
2023/12/16 09:46:13;;;;;;;;;;;12.20;48.70;;;12.37;52.44;103068.69;5074051;28;20012;-35
2023/12/16 09:48:42;;;;;;;;;;;12.20;48.70;;;12.37;51.60;103063.66;5076293;28;20392;-35
2023/12/16 09:51:10;;;;;;;;;;;12.20;48.70;;;12.39;51.86;103068.22;5075446;28;19931;-36
2023/12/16 09:53:40;;;;;;;;;;;12.30;48.70;;;12.41;52.16;103060.94;5074269;28;19928;-35
2023/12/16 09:56:09;;;;;;;;;;;12.30;48.70;;;12.40;52.04;103059.09;5064799;28;20337;-35
2023/12/16 09:58:37;;;;;;;;;;;12.20;48.70;;;12.45;51.91;103068.34;5074681;28;20030;-35
2023/12/16 10:01:05;;;;;;;;;;;12.30;48.70;;;12.35;51.84;103029.78;5073675;28;20272;-35
2023/12/16 10:03:33;;;;;;;;;;;12.30;48.70;;;12.46;51.58;103060.09;5073883;28;19928;-35
2023/12/16 10:06:01;;;;;;;;;;;12.30;48.70;;;12.51;51.33;103059.25;5072797;28;20403;-35
2023/12/16 10:08:29;;;;;;;;;;;12.30;48.60;;;12.52;51.49;103053.53;5073813;28;20296;-35
2023/12/16 10:11:02;;;;;;;;;;;12.30;48.60;;;12.55;51.10;103050.59;5073076;28;20015;-36
2023/12/16 10:13:54;;;;;;;;;;;12.30;48.50;;;12.57;51.84;103050.19;5068536;28;19924;-35
2023/12/16 10:16:23;;;;;;;;;;;12.30;48.50;;;12.60;51.02;103039.66;5065510;28;20023;-34
2023/12/16 10:18:52;;;;;;;;;;;12.40;48.60;;;12.61;51.28;103027.34;5073707;28;19974;-35
2023/12/16 10:21:23;;;;;;;;;;;12.40;48.50;;;12.66;51.03;103026.47;5065564;28;19931;-35
2023/12/16 10:23:52;;;;;;;;;;;12.40;48.50;;;12.65;50.75;103024.63;5073548;28;19932;-35
2023/12/16 10:26:22;;;;;;;;;;;12.40;48.40;;;12.67;50.46;103018.25;5064627;28;20026;-35
2023/12/16 10:28:51;;;;;;;;;;;12.40;48.40;;;12.71;51.29;103019.69;5073104;28;20015;-35
2023/12/16 10:31:21;;;;;;;;;;;12.40;48.40;;;12.71;50.86;103019.69;5065261;28;20295;-35
2023/12/16 10:33:49;;;;;;;;;;;12.50;48.50;;;12.73;51.33;103021.75;5073437;28;19924;-35
2023/12/16 10:36:17;;;;;;;;;;;12.50;48.40;;;12.74;51.26;103021.06;5072734;28;19929;-35
2023/12/16 10:38:45;;;;;;;;;;;12.50;48.40;;;12.76;50.91;103014.69;5073882;28;19924;-35
2023/12/16 10:41:13;;;;;;;;;;;12.50;48.40;;;12.76;51.43;103009.66;5072995;28;20019;-35
2023/12/16 10:43:42;;;;;;;;;;;12.50;48.40;;;12.76;51.22;103004.63;5073211;28;20023;-35
2023/12/16 10:46:10;;;;;;;;;;;12.50;48.40;;;12.77;50.74;102998.91;5072307;28;19998;-35
2023/12/16 10:48:38;;;;;;;;;;;12.50;48.40;;;12.79;51.07;102999.16;5072605;28;19925;-35
2023/12/16 10:51:06;;;;;;;;;;;12.50;48.40;;;12.76;50.66;102984.50;5072783;28;20015;-36
2023/12/16 10:53:39;;;;;;;;;;;12.50;48.40;;;12.76;50.72;102991.13;5072960;28;19924;-35
2023/12/16 10:56:11;;;;;;;;;;;12.50;48.40;;;12.64;51.33;102967.47;5071860;28;19954;-36
2023/12/16 10:58:42;;;;;;;;;;;12.50;48.40;;;12.72;51.12;102987.19;5073138;28;19964;-35
2023/12/16 11:01:14;;;;;;;;;;;12.50;48.50;;;12.72;50.92;102987.19;5072891;28;19924;-36
2023/12/16 11:03:44;;;;;;;;;;;12.50;48.50;;;12.66;51.66;102976.16;5072910;28;19967;-35
2023/12/16 11:06:13;;;;;;;;;;;12.50;48.50;;;12.66;51.35;102978.69;5072294;28;19975;-34
2023/12/16 11:08:41;;;;;;;;;;;12.50;48.60;;;12.68;51.58;102974.81;5072713;28;19928;-34
2023/12/16 11:11:09;;;;;;;;;;;12.50;48.60;;;12.65;51.13;102984.38;5072743;28;20272;-35
2023/12/16 11:13:37;;;;;;;;;;;12.50;48.60;;;12.61;51.47;102961.94;5072652;28;19964;-36
2023/12/16 11:16:07;;;;;;;;;;;12.50;48.60;;;12.64;51.23;102972.50;5071569;28;20301;-34